sensor_id;sensor_type;location;lat;lon;timestamp;P1;durP1;ratioP1;P2;durP2;ratioP2
77705;SDS011;66874;45.274;5.880;2024-01-10T00:01:07;46.17;;;20.08;;
77705;SDS011;66874;45.274;5.880;2024-01-10T00:03:32;44.38;;;19.60;;
77705;SDS011;66874;45.274;5.880;2024-01-10T00:05:58;48.00;;;20.25;;
77705;SDS011;66874;45.274;5.880;2024-01-10T00:08:23;46.05;;;19.77;;
77705;SDS011;66874;45.274;5.880;2024-01-10T00:10:49;42.50;;;19.42;;
77705;SDS011;66874;45.274;5.880;2024-01-10T00:13:16;48.75;;;19.98;;
77705;SDS011;66874;45.274;5.880;2024-01-10T00:15:42;44.63;;;19.42;;
77705;SDS011;66874;45.274;5.880;2024-01-10T00:18:07;45.45;;;18.98;;
77705;SDS011;66874;45.274;5.880;2024-01-10T00:20:33;46.20;;;17.85;;
77705;SDS011;66874;45.274;5.880;2024-01-10T00:22:58;40.67;;;17.27;;
77705;SDS011;66874;45.274;5.880;2024-01-10T00:25:24;34.05;;;15.57;;
77705;SDS011;66874;45.274;5.880;2024-01-10T00:27:49;43.58;;;16.75;;
77705;SDS011;66874;45.274;5.880;2024-01-10T00:30:14;31.75;;;14.90;;
77705;SDS011;66874;45.274;5.880;2024-01-10T00:32:40;34.33;;;15.05;;
77705;SDS011;66874;45.274;5.880;2024-01-10T00:35:05;36.33;;;15.90;;
77705;SDS011;66874;45.274;5.880;2024-01-10T00:37:31;34.03;;;14.45;;
77705;SDS011;66874;45.274;5.880;2024-01-10T00:39:56;36.50;;;16.67;;
77705;SDS011;66874;45.274;5.880;2024-01-10T00:42:21;30.98;;;14.40;;
77705;SDS011;66874;45.274;5.880;2024-01-10T00:44:47;36.10;;;14.05;;
77705;SDS011;66874;45.274;5.880;2024-01-10T00:47:12;34.85;;;15.25;;
77705;SDS011;66874;45.274;5.880;2024-01-10T00:49:37;33.08;;;15.82;;
77705;SDS011;66874;45.274;5.880;2024-01-10T00:52:03;37.20;;;16.45;;
77705;SDS011;66874;45.274;5.880;2024-01-10T00:54:29;32.53;;;14.57;;
77705;SDS011;66874;45.274;5.880;2024-01-10T00:56:54;42.20;;;16.63;;
77705;SDS011;66874;45.274;5.880;2024-01-10T00:59:19;43.92;;;16.65;;
77705;SDS011;66874;45.274;5.880;2024-01-10T01:01:45;34.03;;;16.75;;
77705;SDS011;66874;45.274;5.880;2024-01-10T01:04:10;39.47;;;16.63;;
77705;SDS011;66874;45.274;5.880;2024-01-10T01:06:36;36.80;;;17.30;;
77705;SDS011;66874;45.274;5.880;2024-01-10T01:09:01;33.90;;;15.57;;
77705;SDS011;66874;45.274;5.880;2024-01-10T01:11:27;34.80;;;14.85;;
77705;SDS011;66874;45.274;5.880;2024-01-10T01:13:52;35.08;;;15.23;;
77705;SDS011;66874;45.274;5.880;2024-01-10T01:16:18;37.72;;;15.43;;
77705;SDS011;66874;45.274;5.880;2024-01-10T01:18:43;35.90;;;13.95;;
77705;SDS011;66874;45.274;5.880;2024-01-10T01:21:10;34.50;;;14.52;;
77705;SDS011;66874;45.274;5.880;2024-01-10T01:23:36;32.92;;;15.40;;
77705;SDS011;66874;45.274;5.880;2024-01-10T01:26:01;36.95;;;15.90;;
77705;SDS011;66874;45.274;5.880;2024-01-10T01:28:28;31.77;;;15.07;;
77705;SDS011;66874;45.274;5.880;2024-01-10T01:30:54;35.85;;;14.57;;
77705;SDS011;66874;45.274;5.880;2024-01-10T01:33:19;31.50;;;13.43;;
77705;SDS011;66874;45.274;5.880;2024-01-10T01:35:45;29.70;;;12.90;;
77705;SDS011;66874;45.274;5.880;2024-01-10T01:38:10;33.17;;;14.40;;
77705;SDS011;66874;45.274;5.880;2024-01-10T01:40:36;27.35;;;12.88;;
77705;SDS011;66874;45.274;5.880;2024-01-10T01:43:01;31.60;;;13.00;;
77705;SDS011;66874;45.274;5.880;2024-01-10T01:45:40;29.58;;;12.77;;
77705;SDS011;66874;45.274;5.880;2024-01-10T01:48:06;29.38;;;13.02;;
77705;SDS011;66874;45.274;5.880;2024-01-10T01:50:31;31.65;;;13.45;;
77705;SDS011;66874;45.274;5.880;2024-01-10T01:52:57;28.70;;;13.25;;
77705;SDS011;66874;45.274;5.880;2024-01-10T01:55:22;28.95;;;13.25;;
77705;SDS011;66874;45.274;5.880;2024-01-10T01:57:49;31.60;;;12.87;;
77705;SDS011;66874;45.274;5.880;2024-01-10T02:00:14;28.48;;;13.45;;
77705;SDS011;66874;45.274;5.880;2024-01-10T02:02:40;34.65;;;13.20;;
77705;SDS011;66874;45.274;5.880;2024-01-10T02:07:34;28.27;;;12.05;;
77705;SDS011;66874;45.274;5.880;2024-01-10T02:09:59;31.30;;;13.68;;
77705;SDS011;66874;45.274;5.880;2024-01-10T02:12:25;27.73;;;12.30;;
77705;SDS011;66874;45.274;5.880;2024-01-10T02:14:50;28.90;;;12.95;;
77705;SDS011;66874;45.274;5.880;2024-01-10T02:17:15;30.13;;;12.93;;
77705;SDS011;66874;45.274;5.880;2024-01-10T02:19:41;30.80;;;13.50;;
77705;SDS011;66874;45.274;5.880;2024-01-10T02:22:06;27.55;;;12.50;;
77705;SDS011;66874;45.274;5.880;2024-01-10T02:24:31;26.05;;;12.30;;
77705;SDS011;66874;45.274;5.880;2024-01-10T02:26:57;25.38;;;11.88;;
77705;SDS011;66874;45.274;5.880;2024-01-10T02:29:22;27.60;;;13.05;;
77705;SDS011;66874;45.274;5.880;2024-01-10T02:31:49;26.23;;;12.23;;
77705;SDS011;66874;45.274;5.880;2024-01-10T02:34:14;28.13;;;11.77;;
77705;SDS011;66874;45.274;5.880;2024-01-10T02:36:39;25.23;;;11.20;;
77705;SDS011;66874;45.274;5.880;2024-01-10T02:39:05;25.25;;;12.55;;
77705;SDS011;66874;45.274;5.880;2024-01-10T02:41:30;28.00;;;12.90;;
77705;SDS011;66874;45.274;5.880;2024-01-10T02:43:56;26.80;;;12.02;;
77705;SDS011;66874;45.274;5.880;2024-01-10T02:46:24;26.65;;;11.95;;
77705;SDS011;66874;45.274;5.880;2024-01-10T02:48:52;28.13;;;11.77;;
77705;SDS011;66874;45.274;5.880;2024-01-10T02:51:18;26.58;;;11.90;;
77705;SDS011;66874;45.274;5.880;2024-01-10T02:53:43;29.70;;;13.07;;
77705;SDS011;66874;45.274;5.880;2024-01-10T02:56:09;30.40;;;12.13;;
77705;SDS011;66874;45.274;5.880;2024-01-10T02:58:34;29.25;;;13.45;;
77705;SDS011;66874;45.274;5.880;2024-01-10T03:00:59;28.48;;;12.80;;
77705;SDS011;66874;45.274;5.880;2024-01-10T03:03:26;28.27;;;11.50;;
77705;SDS011;66874;45.274;5.880;2024-01-10T03:05:51;23.75;;;11.32;;
77705;SDS011;66874;45.274;5.880;2024-01-10T03:08:17;29.92;;;12.65;;
77705;SDS011;66874;45.274;5.880;2024-01-10T03:10:42;22.05;;;10.10;;
77705;SDS011;66874;45.274;5.880;2024-01-10T03:13:08;25.58;;;11.95;;
77705;SDS011;66874;45.274;5.880;2024-01-10T03:15:33;28.60;;;12.45;;
77705;SDS011;66874;45.274;5.880;2024-01-10T03:17:58;27.58;;;12.98;;
77705;SDS011;66874;45.274;5.880;2024-01-10T03:20:24;27.05;;;10.95;;
77705;SDS011;66874;45.274;5.880;2024-01-10T03:22:49;26.85;;;11.52;;
77705;SDS011;66874;45.274;5.880;2024-01-10T03:25:14;31.17;;;13.68;;
77705;SDS011;66874;45.274;5.880;2024-01-10T03:27:40;27.27;;;12.18;;
77705;SDS011;66874;45.274;5.880;2024-01-10T03:30:05;26.73;;;11.90;;
77705;SDS011;66874;45.274;5.880;2024-01-10T03:32:31;26.40;;;12.18;;
77705;SDS011;66874;45.274;5.880;2024-01-10T03:34:57;26.05;;;11.05;;
77705;SDS011;66874;45.274;5.880;2024-01-10T03:37:22;26.02;;;12.25;;
77705;SDS011;66874;45.274;5.880;2024-01-10T03:39:47;27.80;;;11.48;;
77705;SDS011;66874;45.274;5.880;2024-01-10T03:42:13;27.50;;;12.18;;
77705;SDS011;66874;45.274;5.880;2024-01-10T03:44:40;26.98;;;12.43;;
77705;SDS011;66874;45.274;5.880;2024-01-10T03:47:06;28.38;;;12.27;;
77705;SDS011;66874;45.274;5.880;2024-01-10T03:49:31;30.60;;;12.52;;
77705;SDS011;66874;45.274;5.880;2024-01-10T03:51:57;30.25;;;12.35;;
77705;SDS011;66874;45.274;5.880;2024-01-10T03:54:22;25.67;;;11.07;;
77705;SDS011;66874;45.274;5.880;2024-01-10T03:56:47;27.55;;;11.35;;
77705;SDS011;66874;45.274;5.880;2024-01-10T03:59:13;27.33;;;12.10;;
77705;SDS011;66874;45.274;5.880;2024-01-10T04:01:38;25.88;;;11.57;;
77705;SDS011;66874;45.274;5.880;2024-01-10T04:04:04;28.75;;;11.63;;
77705;SDS011;66874;45.274;5.880;2024-01-10T04:06:29;26.77;;;12.20;;
77705;SDS011;66874;45.274;5.880;2024-01-10T04:08:55;26.73;;;12.95;;
77705;SDS011;66874;45.274;5.880;2024-01-10T04:11:20;29.20;;;12.55;;
77705;SDS011;66874;45.274;5.880;2024-01-10T04:13:46;25.67;;;12.38;;
77705;SDS011;66874;45.274;5.880;2024-01-10T04:16:11;28.25;;;11.73;;
77705;SDS011;66874;45.274;5.880;2024-01-10T04:18:37;28.58;;;12.55;;
77705;SDS011;66874;45.274;5.880;2024-01-10T04:21:03;28.15;;;11.73;;
77705;SDS011;66874;45.274;5.880;2024-01-10T04:23:28;28.23;;;12.75;;
77705;SDS011;66874;45.274;5.880;2024-01-10T04:25:55;26.02;;;11.50;;
77705;SDS011;66874;45.274;5.880;2024-01-10T04:28:21;24.33;;;11.38;;
77705;SDS011;66874;45.274;5.880;2024-01-10T04:30:46;27.48;;;12.20;;
77705;SDS011;66874;45.274;5.880;2024-01-10T04:33:11;26.95;;;11.35;;
77705;SDS011;66874;45.274;5.880;2024-01-10T04:35:37;23.73;;;12.10;;
77705;SDS011;66874;45.274;5.880;2024-01-10T04:38:02;26.50;;;11.90;;
77705;SDS011;66874;45.274;5.880;2024-01-10T04:40:28;25.63;;;11.27;;
77705;SDS011;66874;45.274;5.880;2024-01-10T04:42:53;25.92;;;12.18;;
77705;SDS011;66874;45.274;5.880;2024-01-10T04:45:19;22.25;;;10.68;;
77705;SDS011;66874;45.274;5.880;2024-01-10T04:47:44;27.25;;;11.98;;
77705;SDS011;66874;45.274;5.880;2024-01-10T04:50:10;27.67;;;11.88;;
77705;SDS011;66874;45.274;5.880;2024-01-10T04:52:35;25.80;;;11.23;;
77705;SDS011;66874;45.274;5.880;2024-01-10T04:55:01;24.45;;;12.48;;
77705;SDS011;66874;45.274;5.880;2024-01-10T04:57:27;27.38;;;12.18;;
77705;SDS011;66874;45.274;5.880;2024-01-10T04:59:53;28.58;;;13.18;;
77705;SDS011;66874;45.274;5.880;2024-01-10T05:02:18;27.05;;;11.52;;
77705;SDS011;66874;45.274;5.880;2024-01-10T05:04:45;29.40;;;12.55;;
77705;SDS011;66874;45.274;5.880;2024-01-10T05:07:10;25.27;;;11.93;;
77705;SDS011;66874;45.274;5.880;2024-01-10T05:09:36;29.30;;;12.18;;
77705;SDS011;66874;45.274;5.880;2024-01-10T05:12:02;29.77;;;12.20;;
77705;SDS011;66874;45.274;5.880;2024-01-10T05:14:27;27.48;;;11.25;;
77705;SDS011;66874;45.274;5.880;2024-01-10T05:16:53;24.83;;;11.77;;
77705;SDS011;66874;45.274;5.880;2024-01-10T05:19:18;29.80;;;11.75;;
77705;SDS011;66874;45.274;5.880;2024-01-10T05:21:44;28.67;;;11.95;;
77705;SDS011;66874;45.274;5.880;2024-01-10T05:24:09;27.42;;;11.85;;
77705;SDS011;66874;45.274;5.880;2024-01-10T05:26:35;26.80;;;11.50;;
77705;SDS011;66874;45.274;5.880;2024-01-10T05:29:00;26.38;;;11.45;;
77705;SDS011;66874;45.274;5.880;2024-01-10T05:31:26;24.85;;;12.48;;
77705;SDS011;66874;45.274;5.880;2024-01-10T05:33:51;33.20;;;12.32;;
77705;SDS011;66874;45.274;5.880;2024-01-10T05:36:18;22.15;;;10.65;;
77705;SDS011;66874;45.274;5.880;2024-01-10T05:38:47;28.70;;;10.85;;
77705;SDS011;66874;45.274;5.880;2024-01-10T05:41:13;24.80;;;11.13;;
77705;SDS011;66874;45.274;5.880;2024-01-10T05:43:39;24.67;;;12.23;;
77705;SDS011;66874;45.274;5.880;2024-01-10T05:46:05;27.73;;;12.05;;
77705;SDS011;66874;45.274;5.880;2024-01-10T05:48:30;31.08;;;12.57;;
77705;SDS011;66874;45.274;5.880;2024-01-10T05:50:55;26.45;;;11.40;;
77705;SDS011;66874;45.274;5.880;2024-01-10T05:53:21;28.42;;;12.98;;
77705;SDS011;66874;45.274;5.880;2024-01-10T05:55:48;26.67;;;12.02;;
77705;SDS011;66874;45.274;5.880;2024-01-10T05:58:13;23.33;;;11.13;;
77705;SDS011;66874;45.274;5.880;2024-01-10T06:00:39;25.70;;;10.73;;
77705;SDS011;66874;45.274;5.880;2024-01-10T06:03:04;29.38;;;12.60;;
77705;SDS011;66874;45.274;5.880;2024-01-10T06:05:30;29.38;;;11.23;;
77705;SDS011;66874;45.274;5.880;2024-01-10T06:07:56;26.05;;;11.93;;
77705;SDS011;66874;45.274;5.880;2024-01-10T06:10:22;23.67;;;11.88;;
77705;SDS011;66874;45.274;5.880;2024-01-10T06:12:47;24.88;;;12.57;;
77705;SDS011;66874;45.274;5.880;2024-01-10T06:15:13;24.00;;;11.77;;
77705;SDS011;66874;45.274;5.880;2024-01-10T06:17:39;29.70;;;13.50;;
77705;SDS011;66874;45.274;5.880;2024-01-10T06:20:05;28.13;;;12.20;;
77705;SDS011;66874;45.274;5.880;2024-01-10T06:22:32;25.90;;;12.85;;
77705;SDS011;66874;45.274;5.880;2024-01-10T06:24:58;24.90;;;11.68;;
77705;SDS011;66874;45.274;5.880;2024-01-10T06:27:23;26.13;;;11.43;;
77705;SDS011;66874;45.274;5.880;2024-01-10T06:29:49;29.92;;;12.02;;
77705;SDS011;66874;45.274;5.880;2024-01-10T06:32:14;27.30;;;11.23;;
77705;SDS011;66874;45.274;5.880;2024-01-10T06:34:40;27.27;;;12.38;;
77705;SDS011;66874;45.274;5.880;2024-01-10T06:37:06;24.00;;;11.15;;
77705;SDS011;66874;45.274;5.880;2024-01-10T06:39:34;29.52;;;12.10;;
77705;SDS011;66874;45.274;5.880;2024-01-10T06:42:00;23.10;;;11.18;;
77705;SDS011;66874;45.274;5.880;2024-01-10T06:44:25;23.23;;;11.57;;
77705;SDS011;66874;45.274;5.880;2024-01-10T06:46:52;26.85;;;11.50;;
77705;SDS011;66874;45.274;5.880;2024-01-10T06:49:18;28.10;;;11.65;;
77705;SDS011;66874;45.274;5.880;2024-01-10T06:51:43;26.65;;;13.02;;
77705;SDS011;66874;45.274;5.880;2024-01-10T06:54:09;28.02;;;13.07;;
77705;SDS011;66874;45.274;5.880;2024-01-10T06:56:34;27.52;;;11.93;;
77705;SDS011;66874;45.274;5.880;2024-01-10T06:59:00;31.15;;;12.27;;
77705;SDS011;66874;45.274;5.880;2024-01-10T07:01:27;28.73;;;11.60;;
77705;SDS011;66874;45.274;5.880;2024-01-10T07:03:53;23.63;;;11.77;;
77705;SDS011;66874;45.274;5.880;2024-01-10T07:06:21;27.65;;;11.68;;
77705;SDS011;66874;45.274;5.880;2024-01-10T07:08:48;29.13;;;13.07;;
77705;SDS011;66874;45.274;5.880;2024-01-10T07:11:14;28.02;;;11.98;;
77705;SDS011;66874;45.274;5.880;2024-01-10T07:13:44;28.23;;;12.35;;
77705;SDS011;66874;45.274;5.880;2024-01-10T07:16:10;25.95;;;11.75;;
77705;SDS011;66874;45.274;5.880;2024-01-10T07:18:35;28.77;;;12.80;;
77705;SDS011;66874;45.274;5.880;2024-01-10T07:21:01;31.88;;;11.93;;
77705;SDS011;66874;45.274;5.880;2024-01-10T07:23:27;28.15;;;13.30;;
77705;SDS011;66874;45.274;5.880;2024-01-10T07:25:52;26.50;;;11.55;;
77705;SDS011;66874;45.274;5.880;2024-01-10T07:28:18;30.85;;;12.32;;
77705;SDS011;66874;45.274;5.880;2024-01-10T07:30:44;30.35;;;14.75;;
77705;SDS011;66874;45.274;5.880;2024-01-10T07:33:10;27.83;;;12.57;;
77705;SDS011;66874;45.274;5.880;2024-01-10T07:35:36;25.00;;;12.90;;
77705;SDS011;66874;45.274;5.880;2024-01-10T07:38:03;25.23;;;12.68;;
77705;SDS011;66874;45.274;5.880;2024-01-10T07:40:28;27.52;;;12.48;;
77705;SDS011;66874;45.274;5.880;2024-01-10T07:42:54;26.42;;;12.38;;
77705;SDS011;66874;45.274;5.880;2024-01-10T07:45:20;30.35;;;12.82;;
77705;SDS011;66874;45.274;5.880;2024-01-10T07:47:46;29.73;;;12.75;;
77705;SDS011;66874;45.274;5.880;2024-01-10T07:50:11;28.42;;;12.40;;
77705;SDS011;66874;45.274;5.880;2024-01-10T07:52:40;29.23;;;13.32;;
77705;SDS011;66874;45.274;5.880;2024-01-10T07:55:06;28.10;;;12.55;;
77705;SDS011;66874;45.274;5.880;2024-01-10T07:57:33;31.00;;;12.25;;
77705;SDS011;66874;45.274;5.880;2024-01-10T07:59:59;30.88;;;13.43;;
77705;SDS011;66874;45.274;5.880;2024-01-10T08:02:24;31.90;;;13.68;;
77705;SDS011;66874;45.274;5.880;2024-01-10T08:04:50;31.83;;;13.05;;
77705;SDS011;66874;45.274;5.880;2024-01-10T08:07:16;29.70;;;11.18;;
77705;SDS011;66874;45.274;5.880;2024-01-10T08:09:41;25.05;;;12.15;;
77705;SDS011;66874;45.274;5.880;2024-01-10T08:12:07;33.80;;;13.15;;
77705;SDS011;66874;45.274;5.880;2024-01-10T08:14:32;27.77;;;13.00;;
77705;SDS011;66874;45.274;5.880;2024-01-10T08:16:58;29.65;;;12.80;;
77705;SDS011;66874;45.274;5.880;2024-01-10T08:19:25;34.80;;;13.73;;
77705;SDS011;66874;45.274;5.880;2024-01-10T08:21:52;31.85;;;14.00;;
77705;SDS011;66874;45.274;5.880;2024-01-10T08:24:18;29.63;;;13.32;;
77705;SDS011;66874;45.274;5.880;2024-01-10T08:26:44;26.75;;;11.55;;
77705;SDS011;66874;45.274;5.880;2024-01-10T08:29:09;30.88;;;12.80;;
77705;SDS011;66874;45.274;5.880;2024-01-10T08:31:35;28.83;;;12.45;;
77705;SDS011;66874;45.274;5.880;2024-01-10T08:34:00;30.95;;;12.65;;
77705;SDS011;66874;45.274;5.880;2024-01-10T08:36:26;30.80;;;13.43;;
77705;SDS011;66874;45.274;5.880;2024-01-10T08:38:52;29.90;;;13.80;;
77705;SDS011;66874;45.274;5.880;2024-01-10T08:41:17;29.77;;;12.50;;
77705;SDS011;66874;45.274;5.880;2024-01-10T08:43:44;25.63;;;13.67;;
77705;SDS011;66874;45.274;5.880;2024-01-10T08:46:11;35.07;;;13.80;;
77705;SDS011;66874;45.274;5.880;2024-01-10T08:48:36;30.50;;;13.07;;
77705;SDS011;66874;45.274;5.880;2024-01-10T08:51:02;35.72;;;13.50;;
77705;SDS011;66874;45.274;5.880;2024-01-10T08:53:27;29.20;;;12.90;;
77705;SDS011;66874;45.274;5.880;2024-01-10T08:55:53;28.75;;;13.40;;
77705;SDS011;66874;45.274;5.880;2024-01-10T08:58:18;31.52;;;13.68;;
77705;SDS011;66874;45.274;5.880;2024-01-10T09:00:44;30.55;;;13.68;;
77705;SDS011;66874;45.274;5.880;2024-01-10T09:03:09;37.53;;;14.90;;
77705;SDS011;66874;45.274;5.880;2024-01-10T09:05:34;31.60;;;13.93;;
77705;SDS011;66874;45.274;5.880;2024-01-10T09:08:00;31.55;;;14.63;;
77705;SDS011;66874;45.274;5.880;2024-01-10T09:10:25;30.83;;;12.73;;
77705;SDS011;66874;45.274;5.880;2024-01-10T09:12:53;31.35;;;13.57;;
77705;SDS011;66874;45.274;5.880;2024-01-10T09:15:19;32.00;;;14.73;;
77705;SDS011;66874;45.274;5.880;2024-01-10T09:17:44;27.67;;;13.77;;
77705;SDS011;66874;45.274;5.880;2024-01-10T09:20:10;30.52;;;14.38;;
77705;SDS011;66874;45.274;5.880;2024-01-10T09:22:39;29.08;;;14.48;;
77705;SDS011;66874;45.274;5.880;2024-01-10T09:25:05;31.52;;;13.80;;
77705;SDS011;66874;45.274;5.880;2024-01-10T09:27:32;31.23;;;14.68;;
77705;SDS011;66874;45.274;5.880;2024-01-10T09:30:01;32.03;;;13.63;;
77705;SDS011;66874;45.274;5.880;2024-01-10T09:32:27;33.28;;;15.80;;
77705;SDS011;66874;45.274;5.880;2024-01-10T09:34:54;31.23;;;13.70;;
77705;SDS011;66874;45.274;5.880;2024-01-10T09:37:20;29.75;;;13.98;;
77705;SDS011;66874;45.274;5.880;2024-01-10T09:39:45;32.22;;;13.30;;
77705;SDS011;66874;45.274;5.880;2024-01-10T09:42:10;33.47;;;14.55;;
77705;SDS011;66874;45.274;5.880;2024-01-10T09:44:36;36.22;;;14.98;;
77705;SDS011;66874;45.274;5.880;2024-01-10T09:47:01;31.25;;;14.38;;
77705;SDS011;66874;45.274;5.880;2024-01-10T09:49:27;34.67;;;14.38;;
77705;SDS011;66874;45.274;5.880;2024-01-10T09:51:57;39.60;;;18.67;;
77705;SDS011;66874;45.274;5.880;2024-01-10T09:54:26;31.00;;;14.43;;
77705;SDS011;66874;45.274;5.880;2024-01-10T09:56:55;27.67;;;14.40;;
77705;SDS011;66874;45.274;5.880;2024-01-10T09:59:20;32.13;;;14.98;;
77705;SDS011;66874;45.274;5.880;2024-01-10T10:01:46;32.20;;;14.77;;
77705;SDS011;66874;45.274;5.880;2024-01-10T10:04:12;31.85;;;14.38;;
77705;SDS011;66874;45.274;5.880;2024-01-10T10:06:37;32.08;;;13.98;;
77705;SDS011;66874;45.274;5.880;2024-01-10T10:09:03;33.30;;;14.65;;
77705;SDS011;66874;45.274;5.880;2024-01-10T10:11:29;33.30;;;13.70;;
77705;SDS011;66874;45.274;5.880;2024-01-10T10:13:55;29.58;;;14.48;;
77705;SDS011;66874;45.274;5.880;2024-01-10T10:16:24;30.95;;;13.63;;
77705;SDS011;66874;45.274;5.880;2024-01-10T10:18:53;30.50;;;14.10;;
77705;SDS011;66874;45.274;5.880;2024-01-10T10:21:23;35.38;;;14.02;;
77705;SDS011;66874;45.274;5.880;2024-01-10T10:23:58;28.48;;;14.00;;
77705;SDS011;66874;45.274;5.880;2024-01-10T10:26:26;40.75;;;17.05;;
77705;SDS011;66874;45.274;5.880;2024-01-10T10:28:52;36.78;;;16.90;;
77705;SDS011;66874;45.274;5.880;2024-01-10T10:31:18;33.72;;;16.02;;
77705;SDS011;66874;45.274;5.880;2024-01-10T10:33:44;33.92;;;14.90;;
77705;SDS011;66874;45.274;5.880;2024-01-10T10:36:11;31.65;;;13.88;;
77705;SDS011;66874;45.274;5.880;2024-01-10T10:38:39;28.40;;;13.82;;
77705;SDS011;66874;45.274;5.880;2024-01-10T10:41:05;34.97;;;16.48;;
77705;SDS011;66874;45.274;5.880;2024-01-10T10:43:40;29.90;;;13.90;;
77705;SDS011;66874;45.274;5.880;2024-01-10T10:46:09;32.58;;;15.27;;
77705;SDS011;66874;45.274;5.880;2024-01-10T10:48:39;33.03;;;15.60;;
77705;SDS011;66874;45.274;5.880;2024-01-10T10:51:07;30.98;;;14.30;;
77705;SDS011;66874;45.274;5.880;2024-01-10T10:53:36;29.20;;;14.13;;
77705;SDS011;66874;45.274;5.880;2024-01-10T10:56:03;27.80;;;13.57;;
77705;SDS011;66874;45.274;5.880;2024-01-10T10:58:31;33.33;;;15.30;;
77705;SDS011;66874;45.274;5.880;2024-01-10T11:00:59;35.03;;;14.52;;
77705;SDS011;66874;45.274;5.880;2024-01-10T11:03:24;69.85;;;27.25;;
77705;SDS011;66874;45.274;5.880;2024-01-10T11:05:52;59.90;;;25.38;;
77705;SDS011;66874;45.274;5.880;2024-01-10T11:08:19;36.08;;;15.73;;
77705;SDS011;66874;45.274;5.880;2024-01-10T11:10:45;33.10;;;14.20;;
77705;SDS011;66874;45.274;5.880;2024-01-10T11:21:24;32.58;;;15.18;;
77705;SDS011;66874;45.274;5.880;2024-01-10T11:24:16;53.03;;;25.98;;
77705;SDS011;66874;45.274;5.880;2024-01-10T11:26:44;32.13;;;14.73;;
77705;SDS011;66874;45.274;5.880;2024-01-10T11:29:10;37.35;;;17.33;;
77705;SDS011;66874;45.274;5.880;2024-01-10T11:31:35;37.63;;;16.05;;
77705;SDS011;66874;45.274;5.880;2024-01-10T11:34:03;32.72;;;14.35;;
77705;SDS011;66874;45.274;5.880;2024-01-10T11:36:29;39.22;;;15.85;;
77705;SDS011;66874;45.274;5.880;2024-01-10T11:38:57;40.83;;;16.10;;
77705;SDS011;66874;45.274;5.880;2024-01-10T11:41:33;31.75;;;13.57;;
77705;SDS011;66874;45.274;5.880;2024-01-10T11:46:45;33.95;;;16.25;;
77705;SDS011;66874;45.274;5.880;2024-01-10T11:49:14;27.15;;;13.85;;
77705;SDS011;66874;45.274;5.880;2024-01-10T11:51:42;30.73;;;15.82;;
77705;SDS011;66874;45.274;5.880;2024-01-10T11:54:09;31.27;;;14.10;;
77705;SDS011;66874;45.274;5.880;2024-01-10T11:56:38;32.90;;;14.15;;
77705;SDS011;66874;45.274;5.880;2024-01-10T11:59:08;31.73;;;14.43;;
77705;SDS011;66874;45.274;5.880;2024-01-10T12:01:36;38.85;;;18.30;;
77705;SDS011;66874;45.274;5.880;2024-01-10T12:04:03;46.78;;;23.10;;
77705;SDS011;66874;45.274;5.880;2024-01-10T12:06:29;39.65;;;18.65;;
77705;SDS011;66874;45.274;5.880;2024-01-10T12:08:56;44.60;;;22.93;;
77705;SDS011;66874;45.274;5.880;2024-01-10T12:11:22;36.75;;;16.40;;
77705;SDS011;66874;45.274;5.880;2024-01-10T12:13:48;33.75;;;18.13;;
77705;SDS011;66874;45.274;5.880;2024-01-10T12:16:14;40.30;;;20.33;;
77705;SDS011;66874;45.274;5.880;2024-01-10T12:18:43;44.28;;;20.92;;
77705;SDS011;66874;45.274;5.880;2024-01-10T12:21:09;40.08;;;19.73;;
77705;SDS011;66874;45.274;5.880;2024-01-10T12:23:36;52.60;;;25.13;;
77705;SDS011;66874;45.274;5.880;2024-01-10T12:26:02;47.03;;;25.35;;
77705;SDS011;66874;45.274;5.880;2024-01-10T12:28:29;39.38;;;21.33;;
77705;SDS011;66874;45.274;5.880;2024-01-10T12:30:55;35.95;;;17.45;;
77705;SDS011;66874;45.274;5.880;2024-01-10T12:33:24;34.78;;;16.42;;
77705;SDS011;66874;45.274;5.880;2024-01-10T12:36:11;34.92;;;18.20;;
77705;SDS011;66874;45.274;5.880;2024-01-10T12:38:40;42.42;;;23.88;;
77705;SDS011;66874;45.274;5.880;2024-01-10T12:41:06;36.50;;;20.20;;
77705;SDS011;66874;45.274;5.880;2024-01-10T12:43:34;34.30;;;18.77;;
77705;SDS011;66874;45.274;5.880;2024-01-10T12:46:12;34.90;;;16.75;;
77705;SDS011;66874;45.274;5.880;2024-01-10T12:48:38;31.70;;;14.88;;
77705;SDS011;66874;45.274;5.880;2024-01-10T12:51:08;45.80;;;19.35;;
77705;SDS011;66874;45.274;5.880;2024-01-10T12:53:34;39.05;;;19.27;;
77705;SDS011;66874;45.274;5.880;2024-01-10T12:56:01;45.70;;;22.13;;
77705;SDS011;66874;45.274;5.880;2024-01-10T12:58:28;38.45;;;18.05;;
77705;SDS011;66874;45.274;5.880;2024-01-10T13:00:54;37.67;;;19.02;;
77705;SDS011;66874;45.274;5.880;2024-01-10T13:03:20;37.38;;;18.30;;
77705;SDS011;66874;45.274;5.880;2024-01-10T13:05:46;36.08;;;17.60;;
77705;SDS011;66874;45.274;5.880;2024-01-10T13:08:11;40.13;;;17.75;;
77705;SDS011;66874;45.274;5.880;2024-01-10T13:10:38;30.52;;;13.65;;
77705;SDS011;66874;45.274;5.880;2024-01-10T13:13:03;35.43;;;16.33;;
77705;SDS011;66874;45.274;5.880;2024-01-10T13:15:29;40.30;;;19.70;;
77705;SDS011;66874;45.274;5.880;2024-01-10T13:28:27;45.95;;;18.17;;
77705;SDS011;66874;45.274;5.880;2024-01-10T13:30:53;50.22;;;23.40;;
77705;SDS011;66874;45.274;5.880;2024-01-10T13:33:21;43.60;;;18.55;;
77705;SDS011;66874;45.274;5.880;2024-01-10T13:35:46;49.05;;;22.63;;
77705;SDS011;66874;45.274;5.880;2024-01-10T13:38:11;45.90;;;20.38;;
77705;SDS011;66874;45.274;5.880;2024-01-10T13:40:37;93.60;;;32.70;;
77705;SDS011;66874;45.274;5.880;2024-01-10T13:43:03;76.35;;;33.80;;
77705;SDS011;66874;45.274;5.880;2024-01-10T13:45:29;87.80;;;39.17;;
77705;SDS011;66874;45.274;5.880;2024-01-10T13:47:54;69.53;;;29.63;;
77705;SDS011;66874;45.274;5.880;2024-01-10T13:50:20;47.70;;;22.35;;
77705;SDS011;66874;45.274;5.880;2024-01-10T13:52:45;39.85;;;19.30;;
77705;SDS011;66874;45.274;5.880;2024-01-10T13:55:11;82.93;;;32.67;;
77705;SDS011;66874;45.274;5.880;2024-01-10T13:57:36;58.10;;;24.00;;
77705;SDS011;66874;45.274;5.880;2024-01-10T14:00:02;68.28;;;29.33;;
77705;SDS011;66874;45.274;5.880;2024-01-10T14:02:32;117.05;;;41.70;;
77705;SDS011;66874;45.274;5.880;2024-01-10T14:04:58;64.55;;;26.42;;
77705;SDS011;66874;45.274;5.880;2024-01-10T14:07:23;52.40;;;23.80;;
77705;SDS011;66874;45.274;5.880;2024-01-10T14:09:51;42.22;;;18.50;;
77705;SDS011;66874;45.274;5.880;2024-01-10T14:12:19;44.83;;;24.10;;
77705;SDS011;66874;45.274;5.880;2024-01-10T14:14:45;38.00;;;19.40;;
77705;SDS011;66874;45.274;5.880;2024-01-10T14:17:10;33.63;;;17.23;;
77705;SDS011;66874;45.274;5.880;2024-01-10T14:19:36;35.42;;;16.23;;
77705;SDS011;66874;45.274;5.880;2024-01-10T14:22:01;30.70;;;15.05;;
77705;SDS011;66874;45.274;5.880;2024-01-10T14:24:27;32.90;;;16.50;;
77705;SDS011;66874;45.274;5.880;2024-01-10T14:26:52;34.78;;;15.25;;
77705;SDS011;66874;45.274;5.880;2024-01-10T14:29:17;33.50;;;15.93;;
77705;SDS011;66874;45.274;5.880;2024-01-10T14:31:43;30.25;;;16.05;;
77705;SDS011;66874;45.274;5.880;2024-01-10T14:34:09;34.60;;;15.82;;
77705;SDS011;66874;45.274;5.880;2024-01-10T14:36:34;33.95;;;15.60;;
77705;SDS011;66874;45.274;5.880;2024-01-10T14:39:02;33.33;;;15.63;;